Time;durP1;ratioP1;P1;durP2;ratioP2;P2;SDS_P1;SDS_P2;PMS_P1;PMS_P2;Temp;Humidity;BMP_temperature;BMP_pressure;BME280_temperature;BME280_humidity;BME280_pressure;Samples;Min_cycle;Max_cycle;Signal;HPM_P1;HPM_P2
2023/07/08 00:01:38;;;;;;;2.63;2.40;;;;;;;19.67;78.33;101499.50;5048509;28;20083;-58
2023/07/08 00:04:04;;;;;;;4.90;2.42;;;;;;;19.65;78.10;101495.97;5048174;28;20380;-59
2023/07/08 00:06:30;;;;;;;2.80;2.58;;;;;;;19.62;77.17;101493.34;5048005;28;20029;-59
2023/07/08 00:08:55;;;;;;;3.00;2.47;;;;;;;19.61;77.88;101490.72;5033671;28;20112;-58
2023/07/08 00:11:21;;;;;;;3.10;2.78;;;;;;;19.55;78.68;101483.69;5039733;28;20511;-59
2023/07/08 00:13:46;;;;;;;3.95;2.92;;;;;;;19.51;78.45;101484.53;5046737;28;20025;-59
2023/07/08 00:16:16;;;;;;;3.13;2.47;;;;;;;19.51;77.36;101484.53;5047821;28;20370;-59
2023/07/08 00:18:42;;;;;;;4.22;2.78;;;;;;;19.48;79.33;101484.50;5048056;28;20102;-58
2023/07/08 00:21:14;;;;;;;5.20;3.22;;;;;;;19.44;78.21;101487.13;5048334;28;20092;-58
2023/07/08 00:23:44;;;;;;;4.47;2.92;;;;;;;19.42;79.76;101485.34;5048046;28;20024;-59
2023/07/08 00:26:22;;;;;;;3.67;2.42;;;;;;;19.39;80.39;101485.34;5048355;28;20547;-58
2023/07/08 00:28:47;;;;;;;4.05;2.63;;;;;;;19.36;79.88;101485.31;5047854;28;20384;-58
2023/07/08 00:31:13;;;;;;;5.28;2.45;;;;;;;19.33;79.56;101486.19;5047071;28;20029;-58
2023/07/08 00:33:39;;;;;;;4.55;2.42;;;;;;;19.30;79.11;101473.91;5047568;28;20030;-59
2023/07/08 00:36:11;;;;;;;3.03;2.72;;;;;;;19.27;80.21;101476.53;5048276;28;20037;-57
2023/07/08 00:38:36;;;;;;;3.25;2.50;;;;;;;19.25;79.86;101472.16;5034997;28;20500;-58
2023/07/08 00:41:01;;;;;;;3.38;2.47;;;;;;;19.22;79.92;101470.38;5047165;28;20040;-58
2023/07/08 00:43:51;;;;;;;5.43;2.45;;;;;;;19.18;79.85;101466.84;5047148;28;20151;-58
2023/07/08 00:46:31;;;;;;;3.60;2.63;;;;;;;19.16;79.73;101470.31;5046855;28;20507;-59
2023/07/08 00:49:02;;;;;;;3.65;2.80;;;;;;;19.11;79.86;101462.38;5046954;28;20029;-59
2023/07/08 00:51:28;;;;;;;4.68;2.67;;;;;;;19.11;80.43;101462.38;5047425;28;20431;-58
2023/07/08 00:53:53;;;;;;;3.55;2.40;;;;;;;19.11;81.67;101459.75;5046942;28;20019;-59
2023/07/08 00:56:29;;;;;;;4.50;2.70;;;;;;;19.07;81.68;101460.59;5046646;28;20079;-59
2023/07/08 00:59:08;;;;;;;6.25;2.80;;;;;;;19.07;80.73;101457.97;5047074;28;20094;-58
2023/07/08 01:01:37;;;;;;;3.20;2.58;;;;;;;19.07;80.45;101457.97;5047553;28;20032;-59
2023/07/08 01:04:10;;;;;;;3.88;2.72;;;;;;;19.08;79.62;101460.63;5046942;28;20382;-58
2023/07/08 01:06:41;;;;;;;3.65;3.00;;;;;;;19.07;79.87;101447.47;5046873;28;20040;-59
2023/07/08 01:09:10;;;;;;;4.28;2.58;;;;;;;19.06;79.65;101454.50;5046672;28;20028;-58
2023/07/08 01:11:38;;;;;;;4.53;2.38;;;;;;;19.06;79.36;101453.59;5047380;28;20379;-58
2023/07/08 01:14:05;;;;;;;2.92;2.28;;;;;;;19.06;79.10;101450.97;5046952;28;20029;-58
2023/07/08 01:16:33;;;;;;;4.30;2.38;;;;;;;19.03;79.09;101450.97;5047212;28;20029;-58
2023/07/08 01:19:00;;;;;;;4.07;2.97;;;;;;;19.03;79.33;101458.84;5046417;28;20501;-60
2023/07/08 01:21:36;;;;;;;3.90;2.55;;;;;;;19.00;79.58;101461.41;5045687;28;20500;-59
2023/07/08 01:24:04;;;;;;;3.72;2.72;;;;;;;18.98;79.37;101456.16;5047173;28;20147;-58
2023/07/08 01:26:31;;;;;;;4.90;2.70;;;;;;;18.98;80.05;101457.94;5046726;28;20024;-58
2023/07/08 01:28:57;;;;;;;6.15;2.40;;;;;;;18.90;80.80;101450.88;5046885;28;20392;-58
2023/07/08 01:31:23;;;;;;;3.55;2.83;;;;;;;18.87;80.53;101456.09;5046590;28;20107;-58
2023/07/08 01:33:50;;;;;;;3.25;2.72;;;;;;;18.85;81.04;101452.59;5047038;28;20095;-59
2023/07/08 01:36:17;;;;;;;4.70;2.85;;;;;;;18.82;81.26;101457.81;5046409;28;20032;-59
2023/07/08 01:38:43;;;;;;;3.35;2.60;;;;;;;18.78;81.67;101451.66;5046654;28;20041;-59
2023/07/08 01:41:12;;;;;;;3.60;2.83;;;;;;;18.73;81.82;101453.38;5046713;28;20120;-59
2023/07/08 01:43:37;;;;;;;3.53;2.40;;;;;;;18.67;82.86;101451.56;5046290;28;20025;-59
2023/07/08 01:46:03;;;;;;;3.13;2.75;;;;;;;18.63;82.81;101452.44;5046203;28;20017;-58
2023/07/08 01:48:33;;;;;;;3.08;2.47;;;;;;;18.61;82.54;101459.41;5046932;28;20028;-57
2023/07/08 01:51:04;;;;;;;4.28;3.03;;;;;;;18.54;83.53;101452.34;5046873;28;20064;-58
2023/07/08 01:53:32;;;;;;;;;;;;;;;18.50;84.41;101448.81;5046331;28;20074;-59
2023/07/08 01:55:57;;;;;;;3.17;2.55;;;;;;;18.46;84.77;101450.53;5040342;28;19913;-58
2023/07/08 01:58:22;;;;;;;3.35;2.88;;;;;;;18.43;85.03;101444.38;5046567;28;20025;-59
2023/07/08 02:00:48;;;;;;;3.35;2.70;;;;;;;18.38;85.55;101436.47;5046210;28;20017;-59
2023/07/08 02:03:15;;;;;;;3.85;2.40;;;;;;;18.33;86.03;101432.94;5046290;28;20013;-58
2023/07/08 02:05:40;;;;;;;3.38;2.80;;;;;;;18.28;86.82;101422.38;5046793;28;20028;-58
2023/07/08 02:08:05;;;;;;;4.22;2.92;;;;;;;18.23;87.78;101424.97;5046446;28;20028;-58
2023/07/08 02:10:31;;;;;;;4.05;2.50;;;;;;;18.18;87.87;101424.06;5047035;28;20032;-57
2023/07/08 02:12:56;;;;;;;5.60;3.17;;;;;;;18.15;88.95;101425.78;5045930;28;20108;-58
2023/07/08 02:15:21;;;;;;;2.95;2.72;;;;;;;18.11;90.03;101416.97;5046885;28;20025;-58
2023/07/08 02:17:46;;;;;;;3.95;2.78;;;;;;;18.06;90.81;101411.66;5046424;28;20032;-59
2023/07/08 02:20:12;;;;;;;3.28;2.45;;;;;;;18.02;91.19;101415.13;5046616;28;20033;-58
2023/07/08 02:22:37;;;;;;;3.08;2.78;;;;;;;17.97;91.96;101404.59;5045923;28;20124;-59
2023/07/08 02:25:03;;;;;;;4.90;2.95;;;;;;;17.95;91.50;101406.31;5045921;28;20033;-58
2023/07/08 02:27:28;;;;;;;3.72;2.70;;;;;;;17.94;92.88;101409.81;5046570;28;20480;-59
2023/07/08 02:29:53;;;;;;;4.82;2.60;;;;;;;17.90;94.00;101402.75;5045692;28;20067;-59
2023/07/08 02:32:19;;;;;;;3.42;2.78;;;;;;;17.87;95.13;101397.50;5047782;28;20060;-59
2023/07/08 02:34:44;;;;;;;3.47;2.75;;;;;;;17.83;94.96;101396.56;5050082;28;20423;-59
2023/07/08 02:37:09;;;;;;;5.03;2.72;;;;;;;17.79;95.22;101401.78;5050437;28;20048;-57
2023/07/08 02:39:34;;;;;;;4.65;3.00;;;;;;;17.74;96.17;101389.50;5048925;28;20136;-59
2023/07/08 02:42:01;;;;;;;4.10;2.60;;;;;;;17.70;96.63;101392.94;5050270;28;20056;-58
2023/07/08 02:44:26;;;;;;;3.38;3.00;;;;;;;17.67;96.74;101389.41;5050034;28;20047;-58
2023/07/08 02:46:51;;;;;;;3.92;2.95;;;;;;;17.62;96.75;101382.38;5050105;28;20013;-59
2023/07/08 02:49:17;;;;;;;3.50;3.03;;;;;;;17.58;97.12;101390.19;5049283;28;20029;-59
2023/07/08 02:51:42;;;;;;;4.18;3.28;;;;;;;17.56;96.26;101386.69;5050044;28;20052;-57
2023/07/08 02:54:07;;;;;;;3.42;3.13;;;;;;;17.55;96.96;101392.78;5048270;28;20457;-59
2023/07/08 02:56:32;;;;;;;6.00;3.22;;;;;;;17.56;96.58;101402.41;5038218;28;20025;-57
2023/07/08 02:58:58;;;;;;;3.67;3.13;;;;;;;17.56;96.16;101398.03;5049117;28;20025;-59
2023/07/08 03:01:23;;;;;;;3.72;3.00;;;;;;;17.58;95.39;101405.91;5049388;28;20454;-59
2023/07/08 03:03:49;;;;;;;4.18;3.78;;;;;;;17.62;95.19;101407.72;5049530;28;20025;-59
2023/07/08 03:06:15;;;;;;;6.18;3.60;;;;;;;17.62;94.74;101412.94;5049408;28;20401;-59
2023/07/08 03:08:40;;;;;;;3.30;2.88;;;;;;;17.62;94.36;101410.31;5049664;28;20055;-59
2023/07/08 03:11:08;;;;;;;5.30;3.17;;;;;;;17.60;94.70;101412.03;5049567;28;20839;-58
2023/07/08 03:13:34;;;;;;;5.53;3.30;;;;;;;17.58;94.37;101406.78;5049027;28;20027;-59
2023/07/08 03:16:00;;;;;;;3.67;3.30;;;;;;;17.57;95.18;101412.00;5049038;28;20515;-58
2023/07/08 03:18:26;;;;;;;4.45;3.80;;;;;;;17.56;95.26;101408.50;5047248;28;20347;-58
2023/07/08 03:20:53;;;;;;;4.20;3.22;;;;;;;17.54;93.49;101407.59;5047059;28;20029;-59
2023/07/08 03:23:18;;;;;;;2.90;2.70;;;;;;;17.54;93.25;101410.22;5047018;28;20358;-58
2023/07/08 03:25:44;;;;;;;3.45;3.00;;;;;;;17.51;93.98;101405.84;5034400;28;20024;-58
2023/07/08 03:28:13;;;;;;;4.03;3.15;;;;;;;17.49;94.15;101406.66;5047089;28;20043;-57
2023/07/08 03:30:39;;;;;;;3.50;3.13;;;;;;;17.45;92.96;101405.75;5046485;28;20032;-58
2023/07/08 03:33:04;;;;;;;4.75;3.13;;;;;;;17.43;94.32;101404.00;5047046;28;20051;-59
2023/07/08 03:35:30;;;;;;;5.75;3.03;;;;;;;17.37;94.80;101407.41;5046978;28;20096;-58
2023/07/08 03:37:55;;;;;;;3.72;3.30;;;;;;;17.32;95.25;101403.84;5045777;28;20049;-58
2023/07/08 03:40:20;;;;;;;4.78;3.67;;;;;;;17.28;95.08;101413.41;5048202;28;20109;-58
2023/07/08 03:42:45;;;;;;;3.50;3.03;;;;;;;17.25;95.70;101414.22;5048725;28;20017;-58
2023/07/08 03:45:11;;;;;;;3.63;3.08;;;;;;;17.23;96.13;101412.47;5048500;28;20465;-59
2023/07/08 03:47:36;;;;;;;5.05;3.03;;;;;;;17.19;95.58;101415.91;5048134;28;20120;-58
2023/07/08 03:50:02;;;;;;;4.18;3.22;;;;;;;17.16;96.51;101416.75;5049459;28;20357;-59
2023/07/08 03:52:27;;;;;;;3.53;2.95;;;;;;;17.12;97.10;101417.56;5047957;28;20032;-59
2023/07/08 03:54:52;;;;;;;5.30;3.70;;;;;;;17.08;97.95;101421.84;5048319;28;20013;-59
2023/07/08 03:57:18;;;;;;;4.57;3.40;;;;;;;17.04;98.13;101415.69;5048802;28;20111;-59
2023/07/08 03:59:43;;;;;;;3.83;3.25;;;;;;;17.03;97.89;101424.41;5048177;28;20049;-58
2023/07/08 04:02:10;;;;;;;4.20;3.67;;;;;;;17.04;97.96;101426.16;5049023;28;20078;-58
2023/07/08 04:04:37;;;;;;;6.32;3.28;;;;;;;17.04;98.43;101425.25;5047629;28;20021;-58
2023/07/08 04:07:03;;;;;;;3.70;3.13;;;;;;;17.04;98.05;101431.38;5048699;28;20124;-58
2023/07/08 04:09:28;;;;;;;5.13;3.40;;;;;;;17.04;98.85;101426.16;5047718;28;20029;-58
2023/07/08 04:11:54;;;;;;;5.28;3.38;;;;;;;17.04;99.44;101431.38;5049019;28;20040;-59
2023/07/08 04:14:19;;;;;;;4.75;3.20;;;;;;;17.00;99.17;101429.56;5048107;28;20025;-58
2023/07/08 04:16:51;;;;;;;3.47;3.20;;;;;;;17.00;99.65;101431.34;5048584;28;20055;-58
2023/07/08 04:19:16;;;;;;;5.85;3.58;;;;;;;16.98;99.83;101428.66;5036002;28;20029;-58
2023/07/08 04:21:43;;;;;;;5.15;3.63;;;;;;;16.97;100.00;101437.38;5033566;28;20072;-59
2023/07/08 04:24:13;;;;;;;4.53;3.10;;;;;;;16.98;99.94;101430.44;5048362;28;20051;-58
2023/07/08 04:26:40;;;;;;;3.63;3.33;;;;;;;17.01;99.01;101426.13;5048174;28;20419;-59
2023/07/08 04:29:18;;;;;;;5.07;3.83;;;;;;;17.05;99.74;101430.50;5048135;28;20118;-59
2023/07/08 04:31:44;;;;;;;4.22;3.60;;;;;;;17.09;100.00;101430.59;5047661;28;20040;-59
2023/07/08 04:34:09;;;;;;;3.83;3.45;;;;;;;17.09;100.00;101434.06;5047837;28;20074;-59
2023/07/08 04:36:34;;;;;;;4.80;3.70;;;;;;;17.12;100.00;101428.03;5048279;28;20225;-58
2023/07/08 04:39:01;;;;;;;4.13;3.58;;;;;;;17.15;100.00;101414.97;5047732;28;20048;-59
2023/07/08 04:41:27;;;;;;;4.82;4.25;;;;;;;17.20;99.71;101415.06;5047936;28;20275;-59
2023/07/08 04:43:53;;;;;;;6.20;4.00;;;;;;;17.23;98.51;101425.56;5047460;28;20025;-58
2023/07/08 04:46:34;;;;;;;6.28;4.07;;;;;;;17.26;99.74;101426.50;5047654;28;20017;-59
2023/07/08 04:49:02;;;;;;;4.85;3.90;;;;;;;17.29;99.71;101425.63;5046434;28;20051;-58
2023/07/08 04:51:27;;;;;;;4.13;3.67;;;;;;;17.31;100.00;101423.91;5047920;28;20100;-57
2023/07/08 04:53:52;;;;;;;4.13;3.70;;;;;;;17.33;99.73;101426.56;5047932;28;20017;-57
2023/07/08 04:56:18;;;;;;;5.60;4.22;;;;;;;17.36;99.54;101427.47;5045981;28;20151;-58
2023/07/08 04:58:44;;;;;;;6.80;4.07;;;;;;;17.41;100.00;101424.94;5047646;28;20063;-58
2023/07/08 05:01:09;;;;;;;4.85;3.55;;;;;;;17.46;99.20;101420.63;5047873;28;20024;-59
2023/07/08 05:03:34;;;;;;;9.50;4.03;;;;;;;17.51;98.56;101426.81;5047626;28;20343;-58
2023/07/08 05:06:00;;;;;;;4.47;3.80;;;;;;;17.57;98.15;101420.75;5046880;28;20503;-59
2023/07/08 05:08:25;;;;;;;4.80;4.20;;;;;;;17.63;97.80;101425.16;5047283;28;20032;-59
2023/07/08 05:10:50;;;;;;;8.50;4.25;;;;;;;17.71;98.21;101422.66;5047059;28;20017;-59
2023/07/08 05:13:16;;;;;;;6.00;4.82;;;;;;;17.79;97.67;101428.00;5047403;28;20036;-57
2023/07/08 05:15:41;;;;;;;4.90;3.72;;;;;;;17.90;98.54;101438.59;5047000;28;20035;-59
2023/07/08 05:18:06;;;;;;;5.35;4.00;;;;;;;18.00;97.72;101432.59;5047339;28;20025;-59
2023/07/08 05:20:33;;;;;;;4.53;3.65;;;;;;;18.09;97.02;101429.19;5035782;28;20087;-59
2023/07/08 05:22:59;;;;;;;4.82;3.80;;;;;;;18.17;96.61;101424.91;5044111;28;20040;-58
2023/07/08 05:25:24;;;;;;;5.00;4.60;;;;;;;18.26;97.68;101423.25;5043798;28;20029;-59
2023/07/08 05:27:49;;;;;;;5.78;4.07;;;;;;;18.32;97.11;101431.16;5043886;28;20083;-59
2023/07/08 05:30:18;;;;;;;5.78;4.20;;;;;;;18.37;96.16;101424.22;5044121;28;20048;-59
2023/07/08 05:32:43;;;;;;;4.45;4.05;;;;;;;18.43;96.42;101428.63;5039875;28;20108;-58
2023/07/08 05:35:09;;;;;;;4.32;3.90;;;;;;;18.50;95.82;101426.94;5043370;28;20446;-57
2023/07/08 05:37:34;;;;;;;7.55;4.80;;;;;;;18.57;95.93;101420.88;5043399;28;20631;-59
2023/07/08 05:40:02;;;;;;;3.95;3.65;;;;;;;18.63;94.48;101415.69;5043977;28;20108;-58
2023/07/08 05:42:27;;;;;;;5.78;4.25;;;;;;;18.68;94.13;101419.22;5044419;28;20155;-59
2023/07/08 05:44:54;;;;;;;4.88;4.30;;;;;;;18.76;94.17;101415.78;5043590;28;20165;-58
2023/07/08 05:47:21;;;;;;;7.22;4.13;;;;;;;18.86;96.13;101416.69;5040649;28;20035;-59
2023/07/08 05:49:46;;;;;;;5.93;4.50;;;;;;;18.92;95.88;101420.28;5031198;28;20032;-59
2023/07/08 05:52:12;;;;;;;4.85;4.15;;;;;;;18.99;94.76;101417.66;5044453;28;20043;-58
2023/07/08 05:54:38;;;;;;;6.13;4.50;;;;;;;19.08;94.92;101415.09;5043265;28;20079;-59
2023/07/08 05:57:05;;;;;;;7.07;4.95;;;;;;;19.16;93.59;101412.53;5038005;28;20025;-59
2023/07/08 05:59:30;;;;;;;5.57;4.88;;;;;;;19.26;92.89;101418.72;5043888;28;20056;-59
2023/07/08 06:01:55;;;;;;;4.60;4.05;;;;;;;19.36;93.64;101419.63;5044558;28;20102;-59
2023/07/08 06:04:21;;;;;;;5.95;4.47;;;;;;;19.44;93.92;101424.06;5042165;28;20724;-59
2023/07/08 06:06:47;;;;;;;5.22;4.45;;;;;;;19.53;93.99;101430.22;5046375;28;20025;-57
2023/07/08 06:09:12;;;;;;;4.90;4.40;;;;;;;19.62;92.17;101427.63;5045614;28;20032;-58
2023/07/08 06:11:38;;;;;;;4.57;4.05;;;;;;;19.72;91.83;101433.78;5039972;28;20389;-59
2023/07/08 06:14:03;;;;;;;4.70;4.30;;;;;;;19.83;92.09;101427.69;5040969;28;20024;-58
2023/07/08 06:16:30;;;;;;;4.95;4.28;;;;;;;19.96;91.84;101434.75;5048097;28;20028;-58
2023/07/08 06:18:56;;;;;;;7.00;4.78;;;;;;;20.08;90.61;101433.03;5045323;28;20037;-58
2023/07/08 06:21:21;;;;;;;4.30;3.80;;;;;;;20.21;90.43;101431.28;5048291;28;20389;-59
2023/07/08 06:23:46;;;;;;;5.43;4.63;;;;;;;20.32;89.19;101429.56;5047441;28;20032;-58
2023/07/08 06:26:12;;;;;;;5.65;4.65;;;;;;;20.45;87.88;101437.44;5048462;28;20155;-59
2023/07/08 06:28:37;;;;;;;4.75;3.85;;;;;;;20.55;86.38;101438.31;5041520;28;20032;-58
2023/07/08 06:31:02;;;;;;;4.93;4.40;;;;;;;20.62;84.57;101440.97;5046311;28;20056;-59
2023/07/08 06:33:27;;;;;;;7.18;4.85;;;;;;;20.73;82.54;101440.06;5046889;28;20324;-59
2023/07/08 06:35:53;;;;;;;4.88;4.32;;;;;;;20.84;82.57;101433.03;5048043;28;20111;-59
2023/07/08 06:38:18;;;;;;;6.97;4.80;;;;;;;20.95;81.87;101426.91;5046529;28;20458;-59
2023/07/08 06:40:43;;;;;;;6.68;4.20;;;;;;;21.07;82.18;101424.22;5046853;28;20028;-58
2023/07/08 06:43:09;;;;;;;5.35;3.90;;;;;;;21.20;82.00;101426.84;5046442;28;20056;-59
2023/07/08 06:45:34;;;;;;;5.47;4.70;;;;;;;21.33;81.29;101423.28;5045003;28;20040;-59
2023/07/08 06:47:59;;;;;;;4.88;3.90;;;;;;;21.46;81.84;101428.50;5047719;28;20392;-59
2023/07/08 06:50:24;;;;;;;6.05;4.03;;;;;;;21.60;80.71;101429.28;5047812;28;20037;-59
2023/07/08 06:52:50;;;;;;;6.68;5.07;;;;;;;21.72;80.47;101430.13;5045441;28;20031;-60
2023/07/08 06:55:15;;;;;;;5.00;4.32;;;;;;;21.86;78.69;101437.13;5046561;28;20035;-59
2023/07/08 06:57:40;;;;;;;7.15;5.07;;;;;;;21.98;77.57;101437.06;5046782;28;20405;-58
2023/07/08 07:00:07;;;;;;;5.90;4.68;;;;;;;22.07;78.12;101429.06;5047196;28;20033;-59
2023/07/08 07:02:33;;;;;;;4.82;4.30;;;;;;;22.19;79.41;101429.88;5047113;28;20426;-60
2023/07/08 07:04:58;;;;;;;5.72;4.72;;;;;;;22.29;77.06;101436.81;5046893;28;20029;-59
2023/07/08 07:07:23;;;;;;;6.30;4.78;;;;;;;22.39;75.31;101431.47;5042263;28;20139;-59
2023/07/08 07:09:49;;;;;;;5.63;4.47;;;;;;;22.51;75.77;101434.00;5046658;28;20028;-59
2023/07/08 07:12:14;;;;;;;5.22;4.72;;;;;;;22.62;73.29;101425.09;5047446;28;20448;-59
2023/07/08 07:14:39;;;;;;;7.25;4.43;;;;;;;22.75;73.44;101418.84;5047058;28;20021;-59
2023/07/08 07:17:05;;;;;;;5.70;4.40;;;;;;;22.90;73.30;101416.94;5045665;28;20114;-59
2023/07/08 07:19:30;;;;;;;4.68;4.20;;;;;;;23.08;72.85;101415.00;5045271;28;20765;-59
2023/07/08 07:21:55;;;;;;;7.35;4.63;;;;;;;23.22;71.74;101418.34;5047179;28;20053;-59
2023/07/08 07:24:20;;;;;;;5.20;4.20;;;;;;;23.35;72.10;101421.69;5046289;28;20065;-59
2023/07/08 07:26:46;;;;;;;6.32;5.10;;;;;;;23.47;70.85;101426.00;5046662;28;20032;-59
2023/07/08 07:29:16;;;;;;;7.00;4.97;;;;;;;23.58;69.65;101431.16;5046092;28;20409;-59
2023/07/08 07:31:41;;;;;;;7.93;5.13;;;;;;;23.66;67.94;101425.75;5045970;28;20471;-60
2023/07/08 07:34:07;;;;;;;5.00;4.07;;;;;;;23.79;68.40;101426.44;5046875;28;20037;-58
2023/07/08 07:36:32;;;;;;;6.50;4.07;;;;;;;23.92;68.43;101428.91;5046484;28;20029;-59
2023/07/08 07:38:57;;;;;;;5.93;4.40;;;;;;;24.09;68.36;101431.28;5045998;28;20073;-60
2023/07/08 07:41:23;;;;;;;6.32;5.50;;;;;;;24.25;67.34;101420.50;5043721;28;20032;-58
2023/07/08 07:43:48;;;;;;;5.13;4.50;;;;;;;24.44;66.48;101427.25;5046004;28;20029;-58
2023/07/08 07:46:14;;;;;;;6.03;4.32;;;;;;;24.61;66.13;101428.69;5043866;28;20544;-59
2023/07/08 07:48:39;;;;;;;10.32;4.72;;;;;;;24.73;66.55;101426.75;5046252;28;20083;-58
2023/07/08 07:51:05;;;;;;;7.00;5.00;;;;;;;24.89;65.81;101427.31;5046121;28;20392;-59
2023/07/08 07:53:31;;;;;;;5.03;4.25;;;;;;;25.05;65.23;101434.13;5046067;28;20605;-58
2023/07/08 07:56:00;;;;;;;5.45;4.45;;;;;;;25.21;63.70;101422.31;5046326;28;20021;-59
2023/07/08 07:58:25;;;;;;;7.80;4.53;;;;;;;25.32;61.69;101420.31;5044455;28;20504;-60
2023/07/08 08:00:51;;;;;;;7.57;4.40;;;;;;;25.40;60.20;101415.72;5046520;28;20020;-60
2023/07/08 08:03:16;;;;;;;6.07;4.45;;;;;;;25.60;61.17;101416.22;5042054;28;20032;-59
2023/07/08 08:05:42;;;;;;;8.48;4.75;;;;;;;25.73;59.91;101415.03;5045955;28;20021;-60
2023/07/08 08:08:07;;;;;;;6.80;4.38;;;;;;;25.84;59.11;101422.75;5045444;28;20042;-60
2023/07/08 08:10:33;;;;;;;7.28;4.97;;;;;;;25.99;58.02;101423.31;5044832;28;20028;-60
2023/07/08 08:12:58;;;;;;;6.18;5.22;;;;;;;26.12;56.53;101419.44;5048376;28;20028;-60
2023/07/08 08:15:24;;;;;;;6.55;4.50;;;;;;;26.29;55.71;101423.47;5040707;28;20076;-59
2023/07/08 08:17:51;;;;;;;5.32;4.82;;;;;;;26.45;56.31;101428.41;5048379;28;20021;-60
2023/07/08 08:20:18;;;;;;;5.63;4.43;;;;;;;26.62;55.03;101427.97;5047360;28;20025;-60
2023/07/08 08:22:43;;;;;;;6.47;5.07;;;;;;;26.80;54.77;101433.69;5048755;28;20032;-60
2023/07/08 08:25:10;;;;;;;8.25;5.60;;;;;;;26.90;52.48;101436.97;5048169;28;20028;-60
2023/07/08 08:27:35;;;;;;;6.28;4.70;;;;;;;27.07;53.97;101434.72;5048353;28;20392;-59
2023/07/08 08:30:00;;;;;;;5.78;4.97;;;;;;;27.25;52.20;101435.16;5046568;28;20034;-60
2023/07/08 08:32:26;;;;;;;11.02;5.88;;;;;;;27.45;51.92;101436.34;5046185;28;20017;-61
2023/07/08 08:34:52;;;;;;;7.72;5.40;;;;;;;27.58;51.90;101442.13;5046990;28;20048;-61
2023/07/08 08:37:17;;;;;;;7.65;5.75;;;;;;;27.72;51.84;101454.19;5045161;28;20339;-61
2023/07/08 08:39:42;;;;;;;6.13;5.05;;;;;;;27.85;52.66;101449.38;5045613;28;20053;-61
2023/07/08 08:42:25;;;;;;;7.55;5.53;;;;;;;27.99;51.76;101452.44;5046291;28;20029;-61
2023/07/08 08:44:51;;;;;;;6.53;5.28;;;;;;;28.19;51.11;101455.38;5048955;28;20025;-60
2023/07/08 08:47:36;;;;;;;7.85;5.78;;;;;;;28.33;51.39;101450.47;5049331;28;20025;-60
2023/07/08 08:50:19;;;;;;;4.55;4.15;;;;;;;28.52;51.97;101448.09;5044526;28;20036;-60
2023/07/08 08:52:45;;;;;;;7.00;5.88;;;;;;;28.71;52.53;101447.41;5048944;28;20048;-61
2023/07/08 08:55:13;;;;;;;6.18;5.57;;;;;;;28.87;50.60;101449.56;5047900;28;20105;-61
2023/07/08 08:57:48;;;;;;;8.02;5.25;;;;;;;28.84;48.33;101449.66;5043017;28;20067;-60
2023/07/08 09:00:22;;;;;;;6.72;5.50;;;;;;;29.04;48.92;101453.41;5036362;28;20098;-61
2023/07/08 09:02:59;;;;;;;7.45;5.72;;;;;;;29.24;48.42;101458.03;5046249;28;20048;-61
2023/07/08 09:05:25;;;;;;;8.00;6.00;;;;;;;29.38;46.79;101454.81;5047363;28;20075;-60
2023/07/08 09:08:15;;;;;;;6.75;6.05;;;;;;;29.49;47.23;101457.97;5044603;28;20051;-61
2023/07/08 09:10:48;;;;;;;6.00;5.33;;;;;;;29.65;47.26;101462.72;5047743;28;20032;-60
2023/07/08 09:13:40;;;;;;;6.88;6.18;;;;;;;29.69;45.19;101459.00;5047575;28;20345;-60
2023/07/08 09:16:36;;;;;;;6.65;5.60;;;;;;;29.80;45.65;101460.38;5046128;28;20040;-60
2023/07/08 09:19:25;;;;;;;8.73;6.50;;;;;;;29.90;44.35;101458.22;5046082;28;20055;-61
2023/07/08 09:22:04;;;;;;;7.93;6.30;;;;;;;29.95;44.66;101456.22;5044427;28;20017;-61
2023/07/08 09:24:48;;;;;;;6.97;6.07;;;;;;;30.07;43.88;101447.72;5037512;28;20033;-61
2023/07/08 09:27:13;;;;;;;8.18;6.50;;;;;;;30.17;43.97;101448.19;5045263;28;20025;-61
2023/07/08 09:29:39;;;;;;;7.35;6.13;;;;;;;30.27;43.14;101442.50;5046957;28;20125;-61
2023/07/08 09:32:21;;;;;;;7.57;6.45;;;;;;;30.35;42.44;101451.03;5046004;28;20021;-61
2023/07/08 09:34:51;;;;;;;8.48;6.70;;;;;;;30.42;42.46;101447.16;5046985;28;20380;-61
2023/07/08 09:37:28;;;;;;;7.43;6.57;;;;;;;30.54;42.65;101450.25;5047156;28;20032;-61
2023/07/08 09:39:55;;;;;;;7.35;6.65;;;;;;;30.60;42.22;101455.31;5044913;28;20186;-61
2023/07/08 09:42:24;;;;;;;7.53;6.72;;;;;;;30.65;42.73;101447.13;5046707;28;20419;-60
2023/07/08 09:44:55;;;;;;;7.03;6.32;;;;;;;30.70;41.51;101445.13;5045854;28;20485;-61
2023/07/08 09:47:28;;;;;;;9.85;6.85;;;;;;;30.76;40.27;101438.63;5043601;28;20056;-60
2023/07/08 09:49:53;;;;;;;7.30;6.60;;;;;;;30.82;41.41;101438.34;5043639;28;20028;-61
2023/07/08 09:52:19;;;;;;;7.35;6.60;;;;;;;30.92;42.74;101429.00;5044795;28;20035;-61
2023/07/08 09:54:45;;;;;;;7.95;6.25;;;;;;;31.05;42.46;101425.75;5047248;28;20013;-61
2023/07/08 09:57:27;;;;;;;8.98;6.45;;;;;;;31.16;43.02;101431.50;5046148;28;20044;-61
2023/07/08 09:59:58;;;;;;;7.13;6.40;;;;;;;31.30;43.11;101426.44;5041074;28;20530;-61
2023/07/08 10:02:40;;;;;;;6.68;5.93;;;;;;;31.37;42.79;101431.41;5042699;28;20626;-61
2023/07/08 10:05:17;;;;;;;7.28;5.97;;;;;;;31.44;42.46;101434.72;5043989;28;20044;-61
2023/07/08 10:07:44;;;;;;;7.68;6.00;;;;;;;31.51;42.59;101433.50;5045085;28;20017;-61
2023/07/08 10:10:15;;;;;;;8.90;6.75;;;;;;;31.60;43.02;101437.53;5045317;28;20824;-61
2023/07/08 10:12:45;;;;;;;7.38;6.20;;;;;;;31.66;41.33;101433.69;5045305;28;20472;-61
2023/07/08 10:15:23;;;;;;;8.60;6.57;;;;;;;31.74;39.90;101438.66;5045565;28;20358;-61
2023/07/08 10:17:49;;;;;;;8.75;6.80;;;;;;;31.81;40.25;101432.06;5033747;28;20589;-61
2023/07/08 10:20:14;;;;;;;7.85;7.00;;;;;;;31.85;39.02;101433.66;5046220;28;20220;-61
2023/07/08 10:23:00;;;;;;;7.63;6.82;;;;;;;31.84;37.97;101437.25;5046815;28;20032;-60
2023/07/08 10:25:43;;;;;;;6.82;6.18;;;;;;;31.79;37.99;101443.81;5046286;28;20025;-61
2023/07/08 10:28:29;;;;;;;8.60;6.25;;;;;;;31.82;38.03;101444.53;5046452;28;20032;-61
2023/07/08 10:31:00;;;;;;;7.07;6.38;;;;;;;31.78;35.93;101437.56;5044663;28;20032;-61
2023/07/08 10:34:01;;;;;;;8.50;6.55;;;;;;;31.78;36.72;101432.22;5046851;28;20086;-61
2023/07/08 10:36:51;;;;;;;6.57;5.95;;;;;;;31.89;37.66;101434.38;5046254;28;20116;-61
2023/07/08 10:39:25;;;;;;;8.90;6.17;;;;;;;31.99;36.84;101445.50;5046173;28;20123;-61
2023/07/08 10:42:03;;;;;;;8.93;6.28;;;;;;;31.98;37.15;101438.41;5046591;28;20025;-61
2023/07/08 10:44:44;;;;;;;10.57;6.35;;;;;;;32.06;38.81;101436.22;5045355;28;20025;-60
2023/07/08 10:47:21;;;;;;;7.40;6.07;;;;;;;32.03;38.74;101441.75;5046440;28;20029;-61
2023/07/08 10:50:06;;;;;;;8.75;7.00;;;;;;;32.11;39.20;101450.25;5045651;28;20112;-61
2023/07/08 10:52:50;;;;;;;8.55;7.63;;;;;;;32.18;37.76;101439.22;5046229;28;20407;-61
2023/07/08 10:55:32;;;;;;;7.68;6.75;;;;;;;32.18;37.05;101450.81;5049612;28;20051;-61
2023/07/08 10:58:26;;;;;;;8.52;6.55;;;;;;;32.31;38.86;101445.69;5049838;28;20579;-61
2023/07/08 11:01:28;;;;;;;10.38;5.85;;;;;;;32.42;37.96;101446.94;5053113;28;20489;-61
2023/07/08 11:04:05;;;;;;;7.47;6.63;;;;;;;32.48;35.96;101443.97;5054603;28;20142;-61
2023/07/08 11:06:54;;;;;;;9.27;6.50;;;;;;;32.51;35.83;101433.06;5037747;28;20035;-61
2023/07/08 11:09:29;;;;;;;8.95;6.80;;;;;;;32.58;36.95;101444.34;5049743;28;20053;-61
2023/07/08 11:12:08;;;;;;;7.40;6.65;;;;;;;32.57;35.47;101439.97;5049793;28;20045;-61
2023/07/08 11:14:51;;;;;;;7.33;6.63;;;;;;;32.57;35.93;101440.84;5037498;28;20120;-61
2023/07/08 11:17:26;;;;;;;7.82;6.47;;;;;;;32.65;35.64;101436.88;5049178;28;20017;-61
2023/07/08 11:20:14;;;;;;;9.90;6.43;;;;;;;32.71;35.00;101436.53;5049987;28;20048;-61
2023/07/08 11:22:50;;;;;;;7.53;6.50;;;;;;;32.71;32.04;101447.25;5038031;28;20109;-61
2023/07/08 11:25:21;;;;;;;7.45;6.28;;;;;;;32.65;31.31;101436.88;5049552;28;20120;-61
2023/07/08 11:27:51;;;;;;;7.60;6.30;;;;;;;32.67;31.35;101445.72;5049814;28;20036;-61
2023/07/08 11:30:21;;;;;;;7.13;6.43;;;;;;;32.73;29.49;101447.19;5049559;28;20070;-61
2023/07/08 11:32:52;;;;;;;6.40;5.80;;;;;;;32.74;30.98;101441.75;5049475;28;20036;-61